Time;durP1;ratioP1;P1;durP2;ratioP2;P2;SDS_P1;SDS_P2;PMS_P1;PMS_P2;Temp;Humidity;BMP_temperature;BMP_pressure;BME280_temperature;BME280_humidity;BME280_pressure;Samples;Min_cycle;Max_cycle;Signal;HPM_P1;HPM_P2
2024/01/13 00:01:51;;;;;;;20.50;10.47;;;;;;;-0.42;100.00;101152.25;5052550;28;20028;-75
2024/01/13 00:04:16;;;;;;;21.60;11.03;;;;;;;-0.64;100.00;101109.69;5055590;28;20028;-71
2024/01/13 00:06:42;;;;;;;18.40;10.07;;;;;;;-0.54;100.00;101127.53;5060275;28;20435;-71
2024/01/13 00:09:07;;;;;;;18.73;10.37;;;;;;;-0.57;100.00;101121.31;5055223;28;20040;-69
2024/01/13 00:11:33;;;;;;;22.77;11.60;;;;;;;-0.48;100.00;101146.63;5059469;28;20115;-70
2024/01/13 00:13:59;;;;;;;21.57;10.40;;;;;;;-0.50;100.00;101142.28;5073077;28;20471;-71
2024/01/13 00:16:26;;;;;;;20.23;10.33;;;;;;;-0.48;100.00;101149.16;5059817;28;20035;-70
2024/01/13 00:18:51;;;;;;;20.17;10.63;;;;;;;-0.51;100.00;101152.31;5060850;28;20029;-72
2024/01/13 00:21:17;;;;;;;21.33;10.57;;;;;;;-0.70;100.00;101112.56;5054123;28;20036;-72
2024/01/13 00:23:43;;;;;;;20.37;11.50;;;;;;;-0.48;100.00;101149.16;5056517;28;20033;-71
2024/01/13 00:26:08;;;;;;;21.93;10.00;;;;;;;-0.85;100.00;101093.38;5060206;28;20059;-71
2024/01/13 00:28:34;;;;;;;21.13;11.00;;;;;;;-0.47;100.00;101146.75;5060606;28;20103;-74
2024/01/13 00:30:59;;;;;;;20.60;10.30;;;;;;;-0.45;100.00;101146.88;5060442;28;20605;-73
2024/01/13 00:33:25;;;;;;;21.57;10.97;;;;;;;-0.43;100.00;101151.34;5067381;28;20033;-70
2024/01/13 00:35:50;;;;;;;22.97;10.43;;;;;;;-0.90;100.00;101072.69;5063075;28;20029;-74
2024/01/13 00:38:16;;;;;;;22.57;11.43;;;;;;;-0.41;100.00;101151.47;5057263;28;20450;-74
2024/01/13 00:40:42;;;;;;;18.00;10.00;;;;;;;-0.41;100.00;101139.72;5057084;28;20053;-71
2024/01/13 00:43:07;;;;;;;21.17;11.13;;;;;;;-0.47;100.00;101123.00;5062786;28;20517;-75
2024/01/13 00:45:34;;;;;;;21.70;12.13;;;;;;;-0.31;100.00;101143.97;5063393;28;20068;-71
2024/01/13 00:48:00;;;;;;;16.55;10.18;;;;;;;-0.49;100.00;101112.72;5051025;28;20060;-71
2024/01/13 00:50:26;;;;;;;22.00;11.90;;;;;;;-0.29;100.00;101141.56;5064243;28;20491;-72
2024/01/13 00:52:51;;;;;;;17.97;10.97;;;;;;;-0.37;100.00;101120.59;5061415;28;20033;-73
2024/01/13 00:55:16;;;;;;;18.93;10.50;;;;;;;-0.27;100.00;101128.28;5064075;28;20047;-71
2024/01/13 00:57:42;;;;;;;18.80;11.17;;;;;;;-0.27;100.00;101128.28;5062119;28;20448;-71
2024/01/13 01:00:08;;;;;;;20.57;10.43;;;;;;;-0.35;100.00;101124.13;5058562;28;20029;-79
2024/01/13 01:02:34;;;;;;;18.73;11.03;;;;;;;-0.41;100.00;101114.34;5063864;28;20036;-71
2024/01/13 01:04:59;;;;;;;19.83;10.90;;;;;;;-0.44;100.00;101100.47;5057100;28;20025;-73
2024/01/13 01:07:24;;;;;;;21.47;10.80;;;;;;;-0.72;100.00;101057.41;5057105;28;20527;-72
2024/01/13 01:09:50;;;;;;;18.87;10.70;;;;;;;-0.53;100.00;101098.00;5063404;28;20024;-72
2024/01/13 01:12:15;;;;;;;18.97;11.27;;;;;;;-0.87;100.00;101031.53;5057144;28;20514;-71
2024/01/13 01:14:41;;;;;;;20.50;11.67;;;;;;;-0.47;100.00;101103.63;5056758;28;20016;-74
2024/01/13 01:17:06;;;;;;;17.70;10.73;;;;;;;-0.37;100.00;101120.59;5057719;28;20021;-73
2024/01/13 01:19:32;;;;;;;21.33;12.07;;;;;;;-0.62;100.00;101082.84;5065493;28;20074;-77
2024/01/13 01:21:57;;;;;;;20.07;10.83;;;;;;;-0.77;100.00;101056.06;5056283;28;20505;-72
2024/01/13 01:24:23;;;;;;;24.23;11.53;;;;;;;-0.45;100.00;101129.13;5055540;28;20028;-73
2024/01/13 01:26:48;;;;;;;18.37;10.87;;;;;;;-0.68;100.00;101074.66;5062821;28;20407;-73
2024/01/13 01:29:14;;;;;;;20.60;11.20;;;;;;;-0.50;100.00;101119.47;5081284;28;20086;-76
2024/01/13 01:31:39;;;;;;;19.17;11.63;;;;;;;-0.86;100.00;101051.94;5073403;28;20510;-72
2024/01/13 01:34:05;;;;;;;22.90;11.23;;;;;;;-0.52;100.00;101115.00;5072134;28;20040;-72
2024/01/13 01:36:32;;;;;;;23.73;11.20;;;;;;;-0.67;100.00;101081.53;5077106;28;20044;-74
2024/01/13 01:38:57;;;;;;;20.40;12.37;;;;;;;-0.88;100.00;101032.28;5080412;28;20052;-74
2024/01/13 01:41:25;;;;;;;23.80;11.50;;;;;;;-0.83;100.00;101044.59;5081740;28;20044;-71
2024/01/13 01:43:51;;;;;;;21.77;12.30;;;;;;;-0.60;100.00;101082.97;5080392;28;20048;-73
2024/01/13 01:46:19;;;;;;;21.90;11.40;;;;;;;-0.51;100.00;101106.66;5081670;28;20179;-72
2024/01/13 01:48:45;;;;;;;21.77;11.37;;;;;;;-0.75;100.00;101074.84;5083089;28;20105;-74
2024/01/13 01:51:12;;;;;;;25.47;13.07;;;;;;;-0.60;100.00;101094.00;5081206;28;20032;-72
2024/01/13 01:53:38;;;;;;;24.63;12.73;;;;;;;-0.85;100.00;101036.00;5061858;28;20151;-75
2024/01/13 01:56:11;;;;;;;29.67;12.93;;;;;;;-0.43;100.00;101095.53;5076556;28;20036;-73
2024/01/13 01:58:39;;;;;;;24.80;12.17;;;;;;;-0.91;100.00;101004.09;5081096;28;20071;-74
2024/01/13 02:01:07;;;;;;;26.30;12.37;;;;;;;-0.39;100.00;101073.88;5065536;28;20037;-73
2024/01/13 02:03:34;;;;;;;25.10;12.30;;;;;;;-0.55;100.00;101046.22;5063539;28;20036;-74
2024/01/13 02:06:02;;;;;;;23.30;12.03;;;;;;;-0.34;100.00;101083.72;5064424;28;20027;-72
2024/01/13 02:08:28;;;;;;;24.73;12.53;;;;;;;-0.29;100.00;101084.09;5065280;28;20414;-71
2024/01/13 02:10:54;;;;;;;27.30;14.03;;;;;;;-0.39;100.00;101051.06;5060134;28;20547;-75
2024/01/13 02:13:19;;;;;;;24.27;12.57;;;;;;;-0.19;100.00;101086.72;5062025;28;20107;-74
2024/01/13 02:15:45;;;;;;;24.85;12.95;;;;;;;-0.12;100.00;101074.59;5065093;28;20029;-75
2024/01/13 02:18:10;;;;;;;24.92;11.95;;;;;;;-0.48;100.00;101013.06;5062679;28;20087;-75
2024/01/13 02:20:36;;;;;;;27.92;12.05;;;;;;;-0.41;100.00;101039.88;5058543;28;20557;-74
2024/01/13 02:23:01;;;;;;;25.00;13.30;;;;;;;-0.22;100.00;101071.22;5064347;28;20071;-72
2024/01/13 02:25:26;;;;;;;28.58;14.20;;;;;;;-0.60;100.00;101005.22;5055336;28;20025;-76
2024/01/13 02:27:52;;;;;;;24.90;12.60;;;;;;;-0.26;100.00;101069.16;5055324;28;20024;-72
2024/01/13 02:30:17;;;;;;;26.10;13.97;;;;;;;-0.30;100.00;101069.63;5060269;28;20082;-76
2024/01/13 02:32:43;;;;;;;29.15;15.85;;;;;;;-0.50;100.00;101048.44;5064167;28;20037;-74
2024/01/13 02:35:08;;;;;;;33.45;18.02;;;;;;;-0.46;100.00;101052.16;5053584;28;20071;-71
2024/01/13 02:37:34;;;;;;;30.97;16.47;;;;;;;-0.52;100.00;101052.47;5064504;28;20112;-72
2024/01/13 02:39:59;;;;;;;36.80;15.30;;;;;;;-0.47;100.00;101068.13;5060789;28;20546;-71
2024/01/13 02:42:25;;;;;;;33.80;15.47;;;;;;;-0.48;100.00;101081.56;5057868;28;20044;-73
2024/01/13 02:44:50;;;;;;;33.13;17.10;;;;;;;-0.69;100.00;101060.19;5061037;28;20056;-72
2024/01/13 02:47:16;;;;;;;29.83;15.43;;;;;;;-0.59;100.00;101080.56;5041311;28;20107;-72
2024/01/13 02:49:41;;;;;;;27.37;14.97;;;;;;;-1.20;100.00;100984.59;5039085;28;20048;-72
2024/01/13 02:52:07;;;;;;;27.23;14.77;;;;;;;-0.76;100.00;101053.69;5034342;28;20044;-72
2024/01/13 02:54:32;;;;;;;24.23;13.40;;;;;;;-0.59;100.00;101088.16;5039316;28;20037;-72
2024/01/13 02:56:59;;;;;;;29.80;13.37;;;;;;;-0.60;100.00;101083.84;5037134;28;20041;-72
2024/01/13 02:59:24;;;;;;;28.37;13.33;;;;;;;-0.94;100.00;101024.13;5035475;28;20041;-78
2024/01/13 03:01:50;;;;;;;24.80;13.73;;;;;;;-0.52;100.00;101092.19;5041167;28;20049;-72
2024/01/13 03:04:16;;;;;;;29.10;14.63;;;;;;;-0.88;100.00;101025.56;5036311;28;20532;-72
2024/01/13 03:06:42;;;;;;;23.83;13.00;;;;;;;-0.55;100.00;101076.66;5039438;28;20064;-71
2024/01/13 03:09:07;;;;;;;40.23;17.77;;;;;;;-0.91;100.00;101011.72;5035280;28;20037;-72
2024/01/13 03:11:33;;;;;;;60.43;22.97;;;;;;;-0.44;100.00;101073.47;5035983;28;20123;-71
2024/01/13 03:13:58;;;;;;;72.77;26.07;;;;;;;-0.56;100.00;101052.97;5032211;28;20049;-75
2024/01/13 03:16:24;;;;;;;53.23;21.13;;;;;;;-0.40;100.00;101095.84;5040695;28;20577;-72
2024/01/13 03:18:49;;;;;;;46.50;19.43;;;;;;;-0.49;100.00;101072.16;5059333;28;20041;-71
2024/01/13 03:21:15;;;;;;;36.97;16.60;;;;;;;-0.59;100.00;101059.41;5061423;28;20043;-73
2024/01/13 03:23:45;;;;;;;30.97;14.53;;;;;;;-0.45;100.00;101091.09;5054034;28;20037;-72
2024/01/13 03:26:12;;;;;;;29.00;14.20;;;;;;;-0.48;100.00;101073.94;5054263;28;20551;-72
2024/01/13 03:28:38;;;;;;;30.53;14.13;;;;;;;-0.41;100.00;101083.00;5055568;28;20120;-74
2024/01/13 03:31:03;;;;;;;30.17;13.83;;;;;;;-0.44;100.00;101081.06;5058716;28;20467;-72
2024/01/13 03:33:29;;;;;;;23.80;14.07;;;;;;;-0.42;100.00;101086.31;5057404;28;20037;-72
2024/01/13 03:35:55;;;;;;;32.03;14.95;;;;;;;-0.38;100.00;101076.53;5059688;28;20399;-73
2024/01/13 03:38:20;;;;;;;28.00;14.33;;;;;;;-0.42;100.00;101066.88;5058814;28;20036;-72
2024/01/13 03:40:46;;;;;;;25.30;13.43;;;;;;;-0.68;100.00;101011.28;5058137;28;20052;-72
2024/01/13 03:43:11;;;;;;;27.17;14.17;;;;;;;-0.25;100.00;101081.09;5061102;28;20052;-73
2024/01/13 03:45:37;;;;;;;26.58;13.98;;;;;;;-0.21;100.00;101082.28;5059428;28;20047;-76
2024/01/13 03:48:02;;;;;;;25.03;13.43;;;;;;;-0.19;100.00;101080.75;5055070;28;20032;-72
2024/01/13 03:50:28;;;;;;;27.65;14.45;;;;;;;-0.27;100.00;101067.38;5063176;28;20036;-75
2024/01/13 03:52:53;;;;;;;27.43;13.93;;;;;;;-0.54;100.00;101018.47;5054938;28;20076;-72
2024/01/13 03:55:19;;;;;;;28.58;14.18;;;;;;;-0.12;100.00;101084.75;5060836;28;20482;-72
2024/01/13 03:57:44;;;;;;;27.42;13.93;;;;;;;-0.11;100.00;101078.88;5053025;28;20475;-72
2024/01/13 04:00:10;;;;;;;29.53;14.27;;;;;;;-0.13;100.00;101078.75;5053388;28;20029;-70
2024/01/13 04:02:36;;;;;;;25.53;13.80;;;;;;;-0.22;100.00;101055.13;5059368;28;20093;-71
2024/01/13 04:05:01;;;;;;;30.03;14.30;;;;;;;-0.15;100.00;101066.69;5057275;28;20075;-73
2024/01/13 04:07:27;;;;;;;25.53;13.73;;;;;;;-0.34;100.00;101042.19;5060733;28;20572;-77
2024/01/13 04:09:52;;;;;;;28.20;14.73;;;;;;;-0.18;100.00;101065.66;5061210;28;20020;-72
2024/01/13 04:12:18;;;;;;;27.15;14.45;;;;;;;-0.10;100.00;101068.91;5053773;28;20071;-75
2024/01/13 04:14:43;;;;;;;27.00;13.77;;;;;;;-0.30;100.00;101044.25;5055191;28;20099;-75
2024/01/13 04:17:09;;;;;;;24.52;14.70;;;;;;;-0.10;100.00;101083.22;5061609;28;20166;-73
2024/01/13 04:19:34;;;;;;;25.23;14.43;;;;;;;-0.07;100.00;101099.63;5061448;28;20102;-73
2024/01/13 04:22:00;;;;;;;29.95;14.85;;;;;;;-0.06;100.00;101092.91;5054905;28;20458;-74
2024/01/13 04:24:25;;;;;;;29.63;15.43;;;;;;;-0.33;100.00;101057.56;5061461;28;20033;-74
2024/01/13 04:26:51;;;;;;;28.57;14.50;;;;;;;-0.03;100.00;101096.59;5056587;28;20037;-73
2024/01/13 04:29:16;;;;;;;28.40;13.70;;;;;;;-0.08;100.00;101084.25;5059484;28;20463;-73
2024/01/13 04:31:43;;;;;;;25.30;13.80;;;;;;;-0.01;100.00;101101.81;5056733;28;20090;-71
2024/01/13 04:34:09;;;;;;;27.13;13.70;;;;;;;-0.30;100.00;101046.78;5061135;28;20107;-76
2024/01/13 04:36:35;;;;;;;22.93;13.57;;;;;;;0.03;100.00;101097.91;5060590;28;20052;-74
2024/01/13 04:39:00;;;;;;;30.33;14.37;;;;;;;-0.19;100.00;101061.34;5052536;28;20025;-71
2024/01/13 04:41:26;;;;;;;30.17;16.70;;;;;;;0.06;100.00;101108.31;5059900;28;20422;-73
2024/01/13 04:43:51;;;;;;;39.58;19.33;;;;;;;-0.01;100.00;101104.38;5059844;28;20388;-75
2024/01/13 04:46:17;;;;;;;43.33;22.75;;;;;;;-0.04;100.00;101102.44;5059220;28;20062;-76
2024/01/13 04:48:43;;;;;;;35.20;20.67;;;;;;;-0.47;100.00;101029.16;5063051;28;20209;-72
2024/01/13 04:51:08;;;;;;;30.58;15.65;;;;;;;-0.17;100.00;101080.13;5059250;28;20032;-72
2024/01/13 04:53:34;;;;;;;33.40;16.65;;;;;;;-0.26;100.00;101084.38;5057447;28;20116;-73
2024/01/13 04:55:59;;;;;;;26.98;15.68;;;;;;;-0.23;100.00;101096.47;5055226;28;20123;-75
2024/01/13 04:58:25;;;;;;;26.63;14.13;;;;;;;-0.42;100.00;101071.97;5090409;28;20044;-74
2024/01/13 05:00:50;;;;;;;26.48;13.48;;;;;;;-0.59;100.00;101082.22;5059412;28;20784;-77
2024/01/13 05:03:16;;;;;;;28.03;13.73;;;;;;;-0.71;100.00;101071.84;5056170;28;20032;-76
2024/01/13 05:05:41;;;;;;;26.13;14.07;;;;;;;-0.85;100.00;101068.03;5061049;28;20124;-72
2024/01/13 05:08:07;;;;;;;27.43;12.67;;;;;;;-0.92;100.00;101075.81;5053214;28;20036;-77
2024/01/13 05:10:32;;;;;;;27.27;12.90;;;;;;;-0.93;100.00;101085.06;5053323;28;20033;-76
2024/01/13 05:12:58;;;;;;;25.83;13.03;;;;;;;-1.00;100.00;101075.13;5058867;28;20044;-73
2024/01/13 05:15:24;;;;;;;27.40;13.87;;;;;;;-1.27;100.00;101011.00;5054358;28;20075;-72
2024/01/13 05:17:49;;;;;;;28.50;13.97;;;;;;;-0.83;100.00;101061.47;5063490;28;20074;-75
2024/01/13 05:20:15;;;;;;;28.43;15.20;;;;;;;-0.64;100.00;101079.25;5055727;28;21120;-77
2024/01/13 05:22:40;;;;;;;27.87;14.20;;;;;;;-0.58;100.00;101073.88;5057336;28;20016;-76
2024/01/13 05:25:08;;;;;;;27.47;13.83;;;;;;;-0.45;100.00;101075.88;5064029;28;20029;-74
2024/01/13 05:27:34;;;;;;;26.33;13.93;;;;;;;-0.50;100.00;101068.75;5056050;28;20028;-74
2024/01/13 05:29:59;;;;;;;24.67;13.63;;;;;;;-0.47;100.00;101057.97;5056116;28;20098;-76
2024/01/13 05:32:25;;;;;;;27.50;14.07;;;;;;;-0.33;100.00;101076.97;5067022;28;20032;-74
2024/01/13 05:34:50;;;;;;;27.57;15.60;;;;;;;-0.68;100.00;101003.66;5062531;28;20060;-73
2024/01/13 05:37:16;;;;;;;25.63;13.77;;;;;;;-0.74;100.00;100991.31;5055408;28;20036;-73
2024/01/13 05:39:43;;;;;;;27.27;15.70;;;;;;;-0.34;100.00;101059.97;5059934;28;20410;-75
2024/01/13 05:42:08;;;;;;;29.27;14.73;;;;;;;-0.35;100.00;101055.63;5058480;28;20120;-76
2024/01/13 05:44:34;;;;;;;29.47;15.73;;;;;;;-0.74;100.00;100993.84;5072700;28;20559;-71
2024/01/13 05:47:00;;;;;;;25.63;14.68;;;;;;;-0.35;100.00;101058.16;5072496;28;20028;-75
2024/01/13 05:49:26;;;;;;;47.47;26.60;;;;;;;-0.69;100.00;101007.81;5072867;28;20490;-72
2024/01/13 05:51:51;;;;;;;46.63;23.97;;;;;;;-0.33;100.00;101074.44;5072368;28;20032;-76
2024/01/13 05:54:17;;;;;;;36.50;19.58;;;;;;;-0.31;100.00;101084.72;5072310;28;20119;-71
2024/01/13 05:56:42;;;;;;;29.33;15.87;;;;;;;-0.86;100.00;101001.25;5072217;28;20082;-74
2024/01/13 05:59:08;;;;;;;26.57;13.57;;;;;;;-0.44;100.00;101070.03;5069430;28;20032;-73
2024/01/13 06:01:33;;;;;;;38.90;23.03;;;;;;;-0.42;100.00;101074.50;5081312;28;20028;-74
2024/01/13 06:03:59;;;;;;;34.27;19.70;;;;;;;-0.42;100.00;101071.09;5072790;28;20482;-73
2024/01/13 06:06:24;;;;;;;38.07;17.53;;;;;;;-0.57;100.00;101058.78;5072307;28;20090;-73
2024/01/13 06:08:50;;;;;;;123.17;44.47;;;;;;;-0.46;100.00;101080.06;5072454;28;20043;-72
2024/01/13 06:11:16;;;;;;;41.40;20.80;;;;;;;-0.47;100.00;101068.13;5053639;28;20033;-72
2024/01/13 06:13:41;;;;;;;36.67;20.07;;;;;;;-0.45;100.00;101074.19;5051431;28;20041;-74
2024/01/13 06:16:08;;;;;;;35.00;18.70;;;;;;;-0.47;100.00;101073.19;5062454;28;20051;-75
2024/01/13 06:18:33;;;;;;;36.57;18.87;;;;;;;-0.64;100.00;101076.72;5071515;28;20419;-74
2024/01/13 06:21:00;;;;;;;38.63;19.67;;;;;;;-0.80;100.00;101071.88;5071804;28;20028;-72
2024/01/13 06:23:26;;;;;;;38.00;18.73;;;;;;;-0.89;100.00;101074.47;5068187;28;20032;-72
2024/01/13 06:25:51;;;;;;;38.60;20.93;;;;;;;-1.02;100.00;101079.16;5071569;28;20031;-72
2024/01/13 06:28:17;;;;;;;36.13;19.17;;;;;;;-1.06;100.00;101083.06;5071076;28;20029;-75
2024/01/13 06:30:42;;;;;;;45.70;22.07;;;;;;;-1.39;100.00;101045.31;5071837;28;20033;-70
2024/01/13 06:33:08;;;;;;;46.30;22.70;;;;;;;-1.66;100.00;101011.59;5071161;28;20044;-74
2024/01/13 06:35:33;;;;;;;51.47;25.30;;;;;;;-1.39;100.00;101050.38;5071458;28;20039;-72
2024/01/13 06:37:59;;;;;;;50.40;26.90;;;;;;;-1.39;100.00;101073.19;5071418;28;20111;-75
2024/01/13 06:40:24;;;;;;;52.87;26.70;;;;;;;-1.89;100.00;101006.88;5071172;28;20576;-73
2024/01/13 06:42:50;;;;;;;48.97;25.27;;;;;;;-1.64;100.00;101040.47;5071367;28;20068;-75
2024/01/13 06:45:15;;;;;;;49.53;23.87;;;;;;;-1.59;100.00;101079.78;5064293;28;20032;-74
2024/01/13 06:47:41;;;;;;;43.40;21.97;;;;;;;-1.50;100.00;101078.09;5070572;28;20455;-73
2024/01/13 06:50:06;;;;;;;50.87;23.33;;;;;;;-1.60;100.00;101060.25;5071048;28;20037;-75
2024/01/13 06:52:32;;;;;;;48.73;23.63;;;;;;;-1.43;100.00;101079.59;5071117;28;20024;-75
2024/01/13 06:54:58;;;;;;;50.40;23.67;;;;;;;-2.17;100.00;100941.00;5071257;28;20091;-75
2024/01/13 06:57:23;;;;;;;42.37;19.70;;;;;;;-1.39;100.00;101075.72;5071033;28;20085;-71
2024/01/13 06:59:49;;;;;;;47.53;23.40;;;;;;;-1.37;100.00;101076.72;5071169;28;20473;-71
2024/01/13 07:02:14;;;;;;;48.33;23.83;;;;;;;-1.72;100.00;101029.63;5070771;28;20032;-71
2024/01/13 07:04:41;;;;;;;50.47;23.00;;;;;;;-1.94;100.00;101008.97;5071273;28;20032;-72
2024/01/13 07:07:08;;;;;;;48.33;22.50;;;;;;;-1.34;100.00;101099.84;5070408;28;20023;-76
2024/01/13 07:09:33;;;;;;;47.87;22.97;;;;;;;-1.61;100.00;101040.75;5070863;28;20051;-71
2024/01/13 07:11:59;;;;;;;46.37;21.73;;;;;;;-1.26;100.00;101100.56;5051830;28;20036;-76
2024/01/13 07:14:25;;;;;;;45.80;21.93;;;;;;;-1.21;100.00;101101.88;5070944;28;20016;-71
2024/01/13 07:16:50;;;;;;;42.27;21.20;;;;;;;-1.20;100.00;101102.00;5070763;28;20023;-77
2024/01/13 07:19:16;;;;;;;40.20;19.40;;;;;;;-1.45;100.00;101060.81;5070571;28;20025;-73
2024/01/13 07:21:42;;;;;;;38.97;18.07;;;;;;;-1.45;100.00;101059.94;5070193;28;20470;-72
2024/01/13 07:24:11;;;;;;;39.03;16.33;;;;;;;-1.10;100.00;101102.88;5070096;28;20554;-71
2024/01/13 07:26:41;;;;;;;43.72;19.52;;;;;;;-1.16;100.00;101090.53;5070673;28;20034;-71
2024/01/13 07:29:07;;;;;;;38.33;18.97;;;;;;;-1.00;100.00;101103.00;5070527;28;20043;-72
2024/01/13 07:31:32;;;;;;;30.50;14.23;;;;;;;-0.95;100.00;101113.56;5070650;28;20032;-72
2024/01/13 07:33:58;;;;;;;36.23;17.27;;;;;;;-1.08;100.00;101092.16;5050882;28;20040;-72
2024/01/13 07:36:23;;;;;;;34.20;17.07;;;;;;;-1.05;100.00;101099.13;5070347;28;20530;-71
2024/01/13 07:38:49;;;;;;;30.90;15.43;;;;;;;-0.94;100.00;101105.22;5070018;28;20028;-74
2024/01/13 07:41:14;;;;;;;20.50;10.83;;;;;;;-1.00;100.00;101103.00;5070024;28;20056;-73
2024/01/13 07:43:40;;;;;;;27.23;12.63;;;;;;;-1.18;99.01;101085.31;5070088;28;20029;-70
2024/01/13 07:46:05;;;;;;;27.17;12.93;;;;;;;-0.94;98.96;101100.16;5070645;28;20706;-74
2024/01/13 07:48:31;;;;;;;24.17;11.57;;;;;;;-0.79;95.83;101106.63;5070141;28;20107;-74
2024/01/13 07:50:56;;;;;;;30.23;14.43;;;;;;;-0.67;95.93;101095.09;5070392;28;20394;-73
2024/01/13 07:53:22;;;;;;;24.00;12.30;;;;;;;-0.58;93.40;101096.69;5069941;28;20025;-73
2024/01/13 07:55:47;;;;;;;29.03;13.43;;;;;;;-0.51;90.61;101102.47;5069867;28;20550;-74
2024/01/13 07:58:13;;;;;;;23.93;11.90;;;;;;;-1.16;88.63;101015.44;5069744;28;20033;-73
2024/01/13 08:00:58;;;;;;;24.70;11.27;;;;;;;-0.67;88.12;101112.84;5053127;28;20044;-72
2024/01/13 08:03:24;;;;;;;19.43;9.37;;;;;;;-0.73;87.66;101102.13;5066944;28;20056;-73
2024/01/13 08:05:50;;;;;;;30.07;13.13;;;;;;;-0.94;87.67;101054.53;5067093;28;20044;-71
2024/01/13 08:08:15;;;;;;;17.13;7.80;;;;;;;-0.63;88.14;101108.06;5067254;28;20064;-73
2024/01/13 08:10:41;;;;;;;18.67;8.90;;;;;;;-0.58;87.85;101079.81;5067376;28;20029;-76
2024/01/13 08:13:06;;;;;;;18.50;8.83;;;;;;;-0.62;86.63;101080.31;5066791;28;20044;-75
2024/01/13 08:15:32;;;;;;;12.07;6.20;;;;;;;-0.52;85.38;101103.19;5067366;28;20461;-73
2024/01/13 08:17:57;;;;;;;20.90;9.70;;;;;;;-0.51;86.19;101112.59;5067056;28;20135;-74
2024/01/13 08:20:23;;;;;;;25.37;11.57;;;;;;;-0.45;86.56;101122.41;5067544;28;20051;-78
2024/01/13 08:22:48;;;;;;;22.10;8.57;;;;;;;-0.58;86.35;101084.88;5066796;28;20029;-71
2024/01/13 08:25:14;;;;;;;20.00;9.80;;;;;;;-0.92;86.86;101041.25;5067431;28;20044;-74
2024/01/13 08:27:39;;;;;;;17.47;8.60;;;;;;;-0.86;85.29;101036.75;5067218;28;20040;-72
2024/01/13 08:30:05;;;;;;;21.37;9.07;;;;;;;-0.37;83.63;101116.38;5067141;28;20116;-74
2024/01/13 08:32:31;;;;;;;13.23;6.77;;;;;;;-0.45;83.52;101119.88;5066901;28;20040;-72
2024/01/13 08:34:57;;;;;;;25.43;12.73;;;;;;;-0.33;83.74;101108.28;5067247;28;20059;-72
2024/01/13 08:37:23;;;;;;;19.87;9.93;;;;;;;-0.59;83.11;101051.78;5067346;28;20032;-74
2024/01/13 08:39:48;;;;;;;23.13;9.47;;;;;;;-0.38;83.69;101073.13;5069829;28;20438;-71
2024/01/13 08:42:14;;;;;;;21.27;8.80;;;;;;;-0.18;82.94;101097.75;5069620;28;20028;-76
2024/01/13 08:44:39;;;;;;;19.37;9.73;;;;;;;-1.43;82.27;100909.00;5069919;28;20031;-72
2024/01/13 08:47:05;;;;;;;15.87;8.43;;;;;;;-0.30;82.26;101111.88;5069075;28;20024;-75
2024/01/13 08:49:30;;;;;;;16.17;8.33;;;;;;;-0.31;83.18;101088.16;5068126;28;20483;-70
2024/01/13 08:51:56;;;;;;;20.27;10.47;;;;;;;-0.07;83.76;101089.47;5071114;28;20032;-70
2024/01/13 08:54:23;;;;;;;22.43;10.07;;;;;;;-0.09;82.82;101095.16;5073226;28;20507;-71
2024/01/13 08:56:52;;;;;;;23.10;10.83;;;;;;;-0.02;84.10;101074.66;5070612;28;20048;-75
2024/01/13 08:59:17;;;;;;;16.30;8.25;;;;;;;0.09;82.91;101096.81;5075909;28;20033;-72
2024/01/13 09:01:43;;;;;;;20.20;10.40;;;;;;;0.19;82.90;101089.97;5072931;28;20526;-71
2024/01/13 09:04:09;;;;;;;27.20;12.80;;;;;;;0.04;81.46;101072.66;5073147;28;20024;-71
2024/01/13 09:06:35;;;;;;;26.93;13.57;;;;;;;0.28;83.11;101088.28;5073404;28;20036;-76
2024/01/13 09:09:01;;;;;;;30.93;14.53;;;;;;;0.25;82.76;101054.97;5072838;28;20467;-72
2024/01/13 09:11:27;;;;;;;24.03;11.60;;;;;;;0.48;81.54;101079.84;5073504;28;20025;-71
2024/01/13 09:13:53;;;;;;;25.58;12.93;;;;;;;0.53;81.34;101083.69;5072807;28;20023;-72
2024/01/13 09:16:19;;;;;;;19.73;10.73;;;;;;;0.35;80.32;101047.44;5073118;28;20025;-73
2024/01/13 09:18:46;;;;;;;24.83;12.55;;;;;;;0.22;81.77;101069.97;5072884;28;20029;-72
2024/01/13 09:21:12;;;;;;;17.37;9.50;;;;;;;0.16;81.34;101065.22;5072874;28;20090;-75
2024/01/13 09:23:40;;;;;;;19.37;9.93;;;;;;;0.36;79.78;101068.63;5072391;28;20475;-70
2024/01/13 09:26:07;;;;;;;16.23;8.33;;;;;;;0.35;79.34;101061.75;5072845;28;20444;-75
2024/01/13 09:28:33;;;;;;;26.37;12.17;;;;;;;0.23;79.91;101046.34;5059608;28;20471;-71
2024/01/13 09:30:58;;;;;;;19.57;7.80;;;;;;;0.40;80.07;101037.63;5072809;28;20035;-71
2024/01/13 09:33:24;;;;;;;21.75;11.23;;;;;;;0.45;80.18;101059.28;5072802;28;20478;-71
2024/01/13 09:35:50;;;;;;;26.63;13.93;;;;;;;0.20;81.31;100980.03;5072329;28;20034;-73
2024/01/13 09:38:16;;;;;;;25.75;13.55;;;;;;;0.68;81.32;101024.78;5070402;28;20158;-72
2024/01/13 09:40:42;;;;;;;22.88;9.88;;;;;;;0.83;79.21;101031.16;5072860;28;20432;-72
2024/01/13 09:43:25;;;;;;;21.85;10.98;;;;;;;0.71;79.35;101032.66;5072403;28;20036;-72
2024/01/13 09:45:53;;;;;;;25.58;12.93;;;;;;;0.79;81.04;101013.88;5072676;28;20039;-72
2024/01/13 09:48:20;;;;;;;26.30;13.32;;;;;;;0.62;79.49;100971.78;5072225;28;20020;-71
2024/01/13 09:50:55;;;;;;;24.10;11.00;;;;;;;0.87;77.09;101015.41;5072394;28;20029;-72
2024/01/13 09:53:28;;;;;;;22.92;11.25;;;;;;;0.68;77.95;101004.47;5072301;28;20206;-75
2024/01/13 09:56:00;;;;;;;25.73;13.35;;;;;;;0.49;78.92;100934.31;5072578;28;20032;-73
2024/01/13 09:58:26;;;;;;;26.33;12.60;;;;;;;1.07;77.91;100998.41;5072338;28;20028;-74
2024/01/13 10:00:53;;;;;;;27.13;13.63;;;;;;;0.91;78.68;100919.97;5072529;28;20028;-73
2024/01/13 10:03:20;;;;;;;21.35;10.57;;;;;;;1.12;77.14;100982.78;5052056;28;20044;-71
2024/01/13 10:05:46;;;;;;;23.52;12.25;;;;;;;1.27;77.61;100972.97;5072405;28;20538;-72
2024/01/13 10:08:12;;;;;;;24.95;12.52;;;;;;;1.48;77.35;100972.06;5071935;28;20039;-73
2024/01/13 10:10:39;;;;;;;26.35;12.13;;;;;;;1.54;77.75;100950.53;5069807;28;20123;-72
2024/01/13 10:13:07;;;;;;;24.60;12.70;;;;;;;1.62;76.64;100971.53;5071766;28;20048;-73
2024/01/13 10:15:34;;;;;;;24.73;13.35;;;;;;;1.75;76.00;100959.00;5072320;28;20039;-72
2024/01/13 10:18:00;;;;;;;25.35;12.57;;;;;;;1.18;76.03;100870.47;5071811;28;20031;-71
2024/01/13 10:20:26;;;;;;;26.90;13.45;;;;;;;1.47;76.41;100901.56;5072011;28;20023;-74
2024/01/13 10:22:51;;;;;;;27.38;13.40;;;;;;;1.73;74.19;100972.38;5071744;28;20103;-76
2024/01/13 10:25:17;;;;;;;24.42;12.93;;;;;;;1.86;73.73;100956.44;5071674;28;20465;-73
2024/01/13 10:27:46;;;;;;;23.95;12.18;;;;;;;1.46;74.42;100923.59;5071748;28;20082;-74
2024/01/13 10:30:13;;;;;;;21.80;11.63;;;;;;;1.93;74.45;100968.88;5071660;28;20021;-73
2024/01/13 10:32:42;;;;;;;26.92;12.13;;;;;;;1.78;72.99;100966.91;5071578;28;20028;-72
2024/01/13 10:35:08;;;;;;;20.75;10.55;;;;;;;1.70;74.25;100947.56;5071790;28;20028;-72
2024/01/13 10:37:35;;;;;;;24.17;13.02;;;;;;;1.68;75.65;100966.03;5071395;28;20111;-74
2024/01/13 10:40:00;;;;;;;27.58;13.60;;;;;;;1.69;76.15;100896.56;5071278;28;20109;-78
2024/01/13 10:42:36;;;;;;;25.35;13.00;;;;;;;2.08;74.68;100954.84;5070987;28;20028;-73
2024/01/13 10:45:07;;;;;;;25.67;13.23;;;;;;;1.83;75.39;100862.88;5071543;28;20096;-72
2024/01/13 10:47:38;;;;;;;24.20;12.93;;;;;;;2.07;75.01;100853.72;5071051;28;20031;-72
2024/01/13 10:50:05;;;;;;;26.00;13.98;;;;;;;2.63;72.71;100942.06;5070124;28;20059;-71
2024/01/13 10:52:53;;;;;;;22.77;12.63;;;;;;;2.46;73.29;100932.22;5070903;28;20020;-72
2024/01/13 10:55:19;;;;;;;23.67;13.07;;;;;;;2.52;74.30;100927.59;5070820;28;20024;-71
2024/01/13 10:57:47;;;;;;;19.58;10.10;;;;;;;2.44;71.53;100944.81;5068700;28;20404;-71
2024/01/13 11:00:13;;;;;;;23.15;12.68;;;;;;;2.53;72.21;100924.25;5070849;28;20036;-71
2024/01/13 11:02:42;;;;;;;28.40;14.20;;;;;;;2.57;72.90;100928.84;5070741;28;20028;-77